sensor_id;sensor_type;location;lat;lon;timestamp;P1;durP1;ratioP1;P2;durP2;ratioP2
10248;SDS011;5169;50.560;9.714;2023-03-09T00:01:42;5.97;;;5.33;;
10248;SDS011;5169;50.560;9.714;2023-03-09T00:04:09;6.47;;;5.27;;
10248;SDS011;5169;50.560;9.714;2023-03-09T00:06:38;5.60;;;4.83;;
10248;SDS011;5169;50.560;9.714;2023-03-09T00:09:05;6.23;;;5.57;;
10248;SDS011;5169;50.560;9.714;2023-03-09T00:11:33;12.57;;;9.00;;
10248;SDS011;5169;50.560;9.714;2023-03-09T00:13:59;22.90;;;14.70;;
10248;SDS011;5169;50.560;9.714;2023-03-09T00:16:28;38.40;;;22.23;;
10248;SDS011;5169;50.560;9.714;2023-03-09T00:18:55;26.93;;;16.03;;
10248;SDS011;5169;50.560;9.714;2023-03-09T00:21:25;19.57;;;12.33;;
10248;SDS011;5169;50.560;9.714;2023-03-09T00:26:47;6.30;;;5.37;;
10248;SDS011;5169;50.560;9.714;2023-03-09T00:29:15;5.10;;;4.43;;
10248;SDS011;5169;50.560;9.714;2023-03-09T00:31:42;4.80;;;4.13;;
10248;SDS011;5169;50.560;9.714;2023-03-09T00:34:08;5.73;;;4.70;;
10248;SDS011;5169;50.560;9.714;2023-03-09T00:36:35;5.63;;;4.73;;
10248;SDS011;5169;50.560;9.714;2023-03-09T00:39:01;8.33;;;6.47;;
10248;SDS011;5169;50.560;9.714;2023-03-09T00:41:29;7.50;;;5.93;;
10248;SDS011;5169;50.560;9.714;2023-03-09T00:44:01;7.60;;;5.37;;
10248;SDS011;5169;50.560;9.714;2023-03-09T00:46:28;6.17;;;5.40;;
10248;SDS011;5169;50.560;9.714;2023-03-09T00:48:57;6.13;;;4.70;;
10248;SDS011;5169;50.560;9.714;2023-03-09T00:51:23;7.50;;;5.53;;
10248;SDS011;5169;50.560;9.714;2023-03-09T00:53:53;6.37;;;5.20;;
10248;SDS011;5169;50.560;9.714;2023-03-09T00:56:21;5.80;;;5.20;;
10248;SDS011;5169;50.560;9.714;2023-03-09T00:58:51;7.37;;;5.40;;
10248;SDS011;5169;50.560;9.714;2023-03-09T01:01:20;6.03;;;5.20;;
10248;SDS011;5169;50.560;9.714;2023-03-09T01:03:46;6.27;;;5.47;;
10248;SDS011;5169;50.560;9.714;2023-03-09T01:06:12;7.30;;;6.23;;
10248;SDS011;5169;50.560;9.714;2023-03-09T01:08:41;6.23;;;5.37;;
10248;SDS011;5169;50.560;9.714;2023-03-09T01:11:10;8.07;;;5.57;;
10248;SDS011;5169;50.560;9.714;2023-03-09T01:13:40;8.10;;;6.27;;
10248;SDS011;5169;50.560;9.714;2023-03-09T01:16:08;7.87;;;5.97;;
10248;SDS011;5169;50.560;9.714;2023-03-09T01:18:36;8.40;;;5.83;;
10248;SDS011;5169;50.560;9.714;2023-03-09T01:21:05;8.00;;;6.47;;
10248;SDS011;5169;50.560;9.714;2023-03-09T01:23:31;7.03;;;5.97;;
10248;SDS011;5169;50.560;9.714;2023-03-09T01:25:57;6.43;;;5.40;;
10248;SDS011;5169;50.560;9.714;2023-03-09T01:28:23;7.53;;;5.70;;
10248;SDS011;5169;50.560;9.714;2023-03-09T01:30:51;6.17;;;5.33;;
10248;SDS011;5169;50.560;9.714;2023-03-09T01:33:17;6.17;;;5.47;;
10248;SDS011;5169;50.560;9.714;2023-03-09T01:35:42;8.10;;;6.33;;
10248;SDS011;5169;50.560;9.714;2023-03-09T01:38:08;7.53;;;6.20;;
10248;SDS011;5169;50.560;9.714;2023-03-09T01:40:34;7.70;;;6.40;;
10248;SDS011;5169;50.560;9.714;2023-03-09T01:43:23;7.60;;;6.37;;
10248;SDS011;5169;50.560;9.714;2023-03-09T01:51:37;8.70;;;6.50;;
10248;SDS011;5169;50.560;9.714;2023-03-09T01:54:12;8.20;;;7.03;;
10248;SDS011;5169;50.560;9.714;2023-03-09T01:56:44;8.20;;;7.00;;
10248;SDS011;5169;50.560;9.714;2023-03-09T01:59:11;12.17;;;8.00;;
10248;SDS011;5169;50.560;9.714;2023-03-09T02:01:39;8.93;;;7.47;;
10248;SDS011;5169;50.560;9.714;2023-03-09T02:04:10;9.37;;;7.93;;
10248;SDS011;5169;50.560;9.714;2023-03-09T02:06:43;10.20;;;7.93;;
10248;SDS011;5169;50.560;9.714;2023-03-09T02:11:57;9.60;;;7.97;;
10248;SDS011;5169;50.560;9.714;2023-03-09T02:14:24;10.00;;;8.50;;
10248;SDS011;5169;50.560;9.714;2023-03-09T02:16:53;10.13;;;8.77;;
10248;SDS011;5169;50.560;9.714;2023-03-09T02:20:06;9.50;;;8.53;;
10248;SDS011;5169;50.560;9.714;2023-03-09T02:22:22;8.70;;;7.80;;
10248;SDS011;5169;50.560;9.714;2023-03-09T02:24:57;8.90;;;8.00;;
10248;SDS011;5169;50.560;9.714;2023-03-09T02:27:37;8.33;;;7.53;;
10248;SDS011;5169;50.560;9.714;2023-03-09T02:30:02;9.77;;;8.30;;
10248;SDS011;5169;50.560;9.714;2023-03-09T02:32:31;9.33;;;7.70;;
10248;SDS011;5169;50.560;9.714;2023-03-09T02:34:57;8.20;;;6.90;;
10248;SDS011;5169;50.560;9.714;2023-03-09T02:37:32;10.20;;;8.00;;
10248;SDS011;5169;50.560;9.714;2023-03-09T02:40:11;9.77;;;8.17;;
10248;SDS011;5169;50.560;9.714;2023-03-09T02:42:43;8.40;;;7.50;;
10248;SDS011;5169;50.560;9.714;2023-03-09T02:45:13;7.63;;;6.80;;
10248;SDS011;5169;50.560;9.714;2023-03-09T02:47:43;8.80;;;7.20;;
10248;SDS011;5169;50.560;9.714;2023-03-09T02:50:11;8.90;;;6.53;;
10248;SDS011;5169;50.560;9.714;2023-03-09T02:52:37;8.00;;;6.20;;
10248;SDS011;5169;50.560;9.714;2023-03-09T02:55:03;5.80;;;5.20;;
10248;SDS011;5169;50.560;9.714;2023-03-09T02:57:30;5.93;;;5.33;;
10248;SDS011;5169;50.560;9.714;2023-03-09T02:59:56;6.07;;;4.80;;
10248;SDS011;5169;50.560;9.714;2023-03-09T03:02:23;5.30;;;4.53;;
10248;SDS011;5169;50.560;9.714;2023-03-09T03:04:49;4.53;;;4.07;;
10248;SDS011;5169;50.560;9.714;2023-03-09T03:07:15;5.03;;;4.13;;
10248;SDS011;5169;50.560;9.714;2023-03-09T03:09:40;3.80;;;3.37;;
10248;SDS011;5169;50.560;9.714;2023-03-09T03:12:06;2.93;;;2.63;;
10248;SDS011;5169;50.560;9.714;2023-03-09T03:14:34;3.13;;;2.40;;
10248;SDS011;5169;50.560;9.714;2023-03-09T03:17:00;1.47;;;1.37;;
10248;SDS011;5169;50.560;9.714;2023-03-09T03:19:26;1.50;;;1.40;;
10248;SDS011;5169;50.560;9.714;2023-03-09T03:21:54;1.10;;;1.00;;
10248;SDS011;5169;50.560;9.714;2023-03-09T03:24:22;1.20;;;1.03;;
10248;SDS011;5169;50.560;9.714;2023-03-09T03:26:47;0.97;;;0.90;;
10248;SDS011;5169;50.560;9.714;2023-03-09T03:29:15;1.10;;;0.97;;
10248;SDS011;5169;50.560;9.714;2023-03-09T03:31:43;1.20;;;0.70;;
10248;SDS011;5169;50.560;9.714;2023-03-09T03:34:11;0.67;;;0.67;;
10248;SDS011;5169;50.560;9.714;2023-03-09T03:36:37;0.87;;;0.70;;
10248;SDS011;5169;50.560;9.714;2023-03-09T03:39:02;0.97;;;0.83;;
10248;SDS011;5169;50.560;9.714;2023-03-09T03:41:30;1.87;;;0.80;;
10248;SDS011;5169;50.560;9.714;2023-03-09T03:43:56;0.93;;;0.90;;
10248;SDS011;5169;50.560;9.714;2023-03-09T03:46:22;0.60;;;0.60;;
10248;SDS011;5169;50.560;9.714;2023-03-09T03:48:49;2.50;;;0.60;;
10248;SDS011;5169;50.560;9.714;2023-03-09T03:51:15;0.60;;;0.60;;
10248;SDS011;5169;50.560;9.714;2023-03-09T03:53:41;0.50;;;0.50;;
10248;SDS011;5169;50.560;9.714;2023-03-09T03:56:08;1.83;;;0.60;;
10248;SDS011;5169;50.560;9.714;2023-03-09T03:58:36;0.80;;;0.80;;
10248;SDS011;5169;50.560;9.714;2023-03-09T04:01:02;0.80;;;0.80;;
10248;SDS011;5169;50.560;9.714;2023-03-09T04:03:28;1.20;;;0.90;;
10248;SDS011;5169;50.560;9.714;2023-03-09T04:05:54;1.30;;;1.20;;
10248;SDS011;5169;50.560;9.714;2023-03-09T04:08:20;1.67;;;1.43;;
10248;SDS011;5169;50.560;9.714;2023-03-09T04:10:45;2.27;;;1.90;;
10248;SDS011;5169;50.560;9.714;2023-03-09T04:13:13;2.50;;;2.03;;
10248;SDS011;5169;50.560;9.714;2023-03-09T04:15:39;3.20;;;2.30;;
10248;SDS011;5169;50.560;9.714;2023-03-09T04:18:05;3.53;;;2.80;;
10248;SDS011;5169;50.560;9.714;2023-03-09T04:20:31;5.10;;;3.27;;
10248;SDS011;5169;50.560;9.714;2023-03-09T04:22:56;3.93;;;3.23;;
10248;SDS011;5169;50.560;9.714;2023-03-09T04:25:22;3.53;;;3.10;;
10248;SDS011;5169;50.560;9.714;2023-03-09T04:27:48;4.47;;;3.20;;
10248;SDS011;5169;50.560;9.714;2023-03-09T04:30:16;3.83;;;3.30;;
10248;SDS011;5169;50.560;9.714;2023-03-09T04:32:46;4.53;;;3.63;;
10248;SDS011;5169;50.560;9.714;2023-03-09T04:35:13;4.90;;;4.23;;
10248;SDS011;5169;50.560;9.714;2023-03-09T04:37:39;4.30;;;3.90;;
10248;SDS011;5169;50.560;9.714;2023-03-09T04:40:07;5.23;;;4.10;;
10248;SDS011;5169;50.560;9.714;2023-03-09T04:42:33;6.20;;;4.60;;
10248;SDS011;5169;50.560;9.714;2023-03-09T04:44:59;4.67;;;4.10;;
10248;SDS011;5169;50.560;9.714;2023-03-09T04:47:28;3.33;;;3.03;;
10248;SDS011;5169;50.560;9.714;2023-03-09T04:49:53;3.50;;;3.03;;
10248;SDS011;5169;50.560;9.714;2023-03-09T04:52:19;4.63;;;3.20;;
10248;SDS011;5169;50.560;9.714;2023-03-09T04:54:47;3.80;;;3.30;;
10248;SDS011;5169;50.560;9.714;2023-03-09T04:57:13;3.53;;;2.97;;
10248;SDS011;5169;50.560;9.714;2023-03-09T04:59:39;3.70;;;3.30;;
10248;SDS011;5169;50.560;9.714;2023-03-09T05:02:05;3.13;;;2.70;;
10248;SDS011;5169;50.560;9.714;2023-03-09T05:04:33;3.60;;;3.00;;
10248;SDS011;5169;50.560;9.714;2023-03-09T05:06:58;3.00;;;2.60;;
10248;SDS011;5169;50.560;9.714;2023-03-09T05:09:24;3.37;;;3.03;;
10248;SDS011;5169;50.560;9.714;2023-03-09T05:11:50;2.97;;;2.70;;
10248;SDS011;5169;50.560;9.714;2023-03-09T05:14:19;2.57;;;2.37;;
10248;SDS011;5169;50.560;9.714;2023-03-09T05:16:48;2.50;;;2.30;;
10248;SDS011;5169;50.560;9.714;2023-03-09T05:19:17;2.90;;;2.43;;
10248;SDS011;5169;50.560;9.714;2023-03-09T05:21:46;2.90;;;2.40;;
10248;SDS011;5169;50.560;9.714;2023-03-09T05:24:12;2.47;;;1.93;;
10248;SDS011;5169;50.560;9.714;2023-03-09T05:26:37;3.50;;;1.93;;
10248;SDS011;5169;50.560;9.714;2023-03-09T05:29:03;2.10;;;1.80;;
10248;SDS011;5169;50.560;9.714;2023-03-09T05:31:31;2.07;;;1.87;;
10248;SDS011;5169;50.560;9.714;2023-03-09T05:33:57;1.90;;;1.70;;
10248;SDS011;5169;50.560;9.714;2023-03-09T05:36:25;1.87;;;1.67;;
10248;SDS011;5169;50.560;9.714;2023-03-09T05:38:54;3.03;;;2.10;;
10248;SDS011;5169;50.560;9.714;2023-03-09T05:41:20;2.17;;;1.97;;
10248;SDS011;5169;50.560;9.714;2023-03-09T05:43:46;2.30;;;2.10;;
10248;SDS011;5169;50.560;9.714;2023-03-09T05:46:13;4.80;;;2.13;;
10248;SDS011;5169;50.560;9.714;2023-03-09T05:48:42;2.57;;;2.10;;
10248;SDS011;5169;50.560;9.714;2023-03-09T05:51:15;2.90;;;2.00;;
10248;SDS011;5169;50.560;9.714;2023-03-09T05:53:41;3.40;;;2.33;;
10248;SDS011;5169;50.560;9.714;2023-03-09T05:56:07;4.83;;;2.40;;
10248;SDS011;5169;50.560;9.714;2023-03-09T05:58:33;2.63;;;2.30;;
10248;SDS011;5169;50.560;9.714;2023-03-09T06:00:59;2.57;;;2.37;;
10248;SDS011;5169;50.560;9.714;2023-03-09T06:03:25;2.70;;;2.50;;
10248;SDS011;5169;50.560;9.714;2023-03-09T06:06:00;2.20;;;2.00;;
10248;SDS011;5169;50.560;9.714;2023-03-09T06:08:27;3.33;;;2.20;;
10248;SDS011;5169;50.560;9.714;2023-03-09T06:10:54;2.87;;;2.57;;
10248;SDS011;5169;50.560;9.714;2023-03-09T06:13:24;2.67;;;2.40;;
10248;SDS011;5169;50.560;9.714;2023-03-09T06:15:50;2.97;;;2.60;;
10248;SDS011;5169;50.560;9.714;2023-03-09T06:18:18;2.90;;;2.67;;
10248;SDS011;5169;50.560;9.714;2023-03-09T06:20:45;3.50;;;2.73;;
10248;SDS011;5169;50.560;9.714;2023-03-09T06:23:14;3.07;;;2.77;;
10248;SDS011;5169;50.560;9.714;2023-03-09T06:25:40;2.80;;;2.50;;
10248;SDS011;5169;50.560;9.714;2023-03-09T06:28:06;3.37;;;2.47;;
10248;SDS011;5169;50.560;9.714;2023-03-09T06:30:31;2.87;;;2.60;;
10248;SDS011;5169;50.560;9.714;2023-03-09T06:32:57;3.53;;;2.60;;
10248;SDS011;5169;50.560;9.714;2023-03-09T06:35:23;2.60;;;2.40;;
10248;SDS011;5169;50.560;9.714;2023-03-09T06:37:54;3.10;;;2.53;;
10248;SDS011;5169;50.560;9.714;2023-03-09T06:40:19;2.87;;;2.53;;
10248;SDS011;5169;50.560;9.714;2023-03-09T06:42:45;3.43;;;2.57;;
10248;SDS011;5169;50.560;9.714;2023-03-09T06:45:11;3.43;;;2.63;;
10248;SDS011;5169;50.560;9.714;2023-03-09T06:47:36;3.07;;;2.77;;
10248;SDS011;5169;50.560;9.714;2023-03-09T06:50:02;2.90;;;2.67;;
10248;SDS011;5169;50.560;9.714;2023-03-09T06:52:31;4.20;;;3.07;;
10248;SDS011;5169;50.560;9.714;2023-03-09T06:54:56;3.23;;;2.90;;
10248;SDS011;5169;50.560;9.714;2023-03-09T06:57:22;3.70;;;3.27;;
10248;SDS011;5169;50.560;9.714;2023-03-09T06:59:50;3.33;;;2.97;;
10248;SDS011;5169;50.560;9.714;2023-03-09T07:02:16;3.23;;;2.93;;
10248;SDS011;5169;50.560;9.714;2023-03-09T07:04:42;3.47;;;2.90;;
10248;SDS011;5169;50.560;9.714;2023-03-09T07:07:07;3.40;;;2.97;;
10248;SDS011;5169;50.560;9.714;2023-03-09T07:09:35;3.03;;;2.73;;
10248;SDS011;5169;50.560;9.714;2023-03-09T07:12:03;3.70;;;3.10;;
10248;SDS011;5169;50.560;9.714;2023-03-09T07:14:36;4.47;;;3.33;;
10248;SDS011;5169;50.560;9.714;2023-03-09T07:17:02;5.67;;;3.97;;
10248;SDS011;5169;50.560;9.714;2023-03-09T07:19:28;4.73;;;3.90;;
10248;SDS011;5169;50.560;9.714;2023-03-09T07:21:53;4.57;;;3.70;;
10248;SDS011;5169;50.560;9.714;2023-03-09T07:24:19;3.90;;;3.50;;
10248;SDS011;5169;50.560;9.714;2023-03-09T07:26:47;3.97;;;2.83;;
10248;SDS011;5169;50.560;9.714;2023-03-09T07:29:14;3.90;;;3.17;;
10248;SDS011;5169;50.560;9.714;2023-03-09T07:31:40;3.60;;;3.10;;
10248;SDS011;5169;50.560;9.714;2023-03-09T07:34:06;4.90;;;3.43;;
10248;SDS011;5169;50.560;9.714;2023-03-09T07:36:32;6.10;;;3.57;;
10248;SDS011;5169;50.560;9.714;2023-03-09T07:38:57;4.83;;;4.00;;
10248;SDS011;5169;50.560;9.714;2023-03-09T07:41:23;7.03;;;4.00;;
10248;SDS011;5169;50.560;9.714;2023-03-09T07:43:49;4.80;;;3.10;;
10248;SDS011;5169;50.560;9.714;2023-03-09T07:46:15;6.33;;;4.23;;
10248;SDS011;5169;50.560;9.714;2023-03-09T07:48:43;4.93;;;3.90;;
10248;SDS011;5169;50.560;9.714;2023-03-09T07:51:12;5.63;;;4.17;;
10248;SDS011;5169;50.560;9.714;2023-03-09T07:53:40;4.60;;;3.73;;
10248;SDS011;5169;50.560;9.714;2023-03-09T07:56:06;4.47;;;3.80;;
10248;SDS011;5169;50.560;9.714;2023-03-09T07:58:33;4.77;;;3.90;;
10248;SDS011;5169;50.560;9.714;2023-03-09T08:01:00;5.83;;;3.97;;
10248;SDS011;5169;50.560;9.714;2023-03-09T08:03:29;5.80;;;4.13;;
10248;SDS011;5169;50.560;9.714;2023-03-09T08:05:54;5.43;;;3.70;;
10248;SDS011;5169;50.560;9.714;2023-03-09T08:08:23;3.20;;;2.90;;
10248;SDS011;5169;50.560;9.714;2023-03-09T08:10:51;3.33;;;2.70;;
10248;SDS011;5169;50.560;9.714;2023-03-09T08:13:20;3.27;;;2.30;;
10248;SDS011;5169;50.560;9.714;2023-03-09T08:15:46;2.83;;;2.27;;
10248;SDS011;5169;50.560;9.714;2023-03-09T08:18:13;3.43;;;2.20;;
10248;SDS011;5169;50.560;9.714;2023-03-09T08:20:42;3.60;;;2.50;;
10248;SDS011;5169;50.560;9.714;2023-03-09T08:23:09;5.07;;;2.10;;
10248;SDS011;5169;50.560;9.714;2023-03-09T08:25:37;4.10;;;1.70;;
10248;SDS011;5169;50.560;9.714;2023-03-09T08:28:03;3.27;;;2.20;;
10248;SDS011;5169;50.560;9.714;2023-03-09T08:30:30;4.27;;;2.13;;
10248;SDS011;5169;50.560;9.714;2023-03-09T08:32:59;4.33;;;2.00;;
10248;SDS011;5169;50.560;9.714;2023-03-09T08:35:27;2.20;;;1.60;;
10248;SDS011;5169;50.560;9.714;2023-03-09T08:37:55;2.60;;;1.70;;
10248;SDS011;5169;50.560;9.714;2023-03-09T08:40:23;3.47;;;1.70;;
10248;SDS011;5169;50.560;9.714;2023-03-09T08:42:53;3.70;;;1.90;;
10248;SDS011;5169;50.560;9.714;2023-03-09T08:45:21;3.40;;;1.60;;
10248;SDS011;5169;50.560;9.714;2023-03-09T08:47:47;4.73;;;1.70;;
10248;SDS011;5169;50.560;9.714;2023-03-09T08:50:18;2.40;;;1.40;;
10248;SDS011;5169;50.560;9.714;2023-03-09T08:52:43;2.40;;;1.20;;
10248;SDS011;5169;50.560;9.714;2023-03-09T08:55:09;2.47;;;1.20;;
10248;SDS011;5169;50.560;9.714;2023-03-09T08:57:36;1.90;;;1.30;;
10248;SDS011;5169;50.560;9.714;2023-03-09T09:00:05;2.37;;;1.27;;
10248;SDS011;5169;50.560;9.714;2023-03-09T09:02:35;2.80;;;1.57;;
10248;SDS011;5169;50.560;9.714;2023-03-09T09:05:02;2.23;;;1.30;;
10248;SDS011;5169;50.560;9.714;2023-03-09T09:07:30;4.20;;;1.47;;
10248;SDS011;5169;50.560;9.714;2023-03-09T09:09:58;4.30;;;1.70;;
10248;SDS011;5169;50.560;9.714;2023-03-09T09:12:26;4.70;;;2.13;;
10248;SDS011;5169;50.560;9.714;2023-03-09T09:14:53;4.43;;;1.90;;
10248;SDS011;5169;50.560;9.714;2023-03-09T09:17:19;5.67;;;2.30;;
10248;SDS011;5169;50.560;9.714;2023-03-09T09:19:45;4.60;;;2.23;;
10248;SDS011;5169;50.560;9.714;2023-03-09T09:22:11;3.30;;;2.30;;
10248;SDS011;5169;50.560;9.714;2023-03-09T09:24:39;6.20;;;2.33;;
10248;SDS011;5169;50.560;9.714;2023-03-09T09:27:05;4.10;;;2.30;;
10248;SDS011;5169;50.560;9.714;2023-03-09T09:29:32;4.17;;;2.20;;
10248;SDS011;5169;50.560;9.714;2023-03-09T09:32:01;4.07;;;2.43;;
10248;SDS011;5169;50.560;9.714;2023-03-09T09:34:31;4.27;;;2.30;;
10248;SDS011;5169;50.560;9.714;2023-03-09T09:36:59;4.70;;;2.20;;
10248;SDS011;5169;50.560;9.714;2023-03-09T09:39:26;5.57;;;2.30;;
10248;SDS011;5169;50.560;9.714;2023-03-09T09:41:55;3.87;;;2.47;;
10248;SDS011;5169;50.560;9.714;2023-03-09T09:44:25;3.27;;;2.20;;
10248;SDS011;5169;50.560;9.714;2023-03-09T09:47:14;4.73;;;2.03;;
10248;SDS011;5169;50.560;9.714;2023-03-09T09:49:47;3.50;;;2.20;;
10248;SDS011;5169;50.560;9.714;2023-03-09T10:00:49;3.63;;;2.03;;
10248;SDS011;5169;50.560;9.714;2023-03-09T10:03:25;3.20;;;1.60;;
10248;SDS011;5169;50.560;9.714;2023-03-09T10:06:09;3.23;;;1.70;;
10248;SDS011;5169;50.560;9.714;2023-03-09T10:11:36;4.23;;;1.70;;
10248;SDS011;5169;50.560;9.714;2023-03-09T10:16:37;2.13;;;1.50;;
10248;SDS011;5169;50.560;9.714;2023-03-09T10:19:08;3.67;;;1.80;;
10248;SDS011;5169;50.560;9.714;2023-03-09T10:29:33;4.47;;;1.90;;
10248;SDS011;5169;50.560;9.714;2023-03-09T10:32:05;3.23;;;1.80;;
10248;SDS011;5169;50.560;9.714;2023-03-09T10:34:50;1.97;;;1.50;;
10248;SDS011;5169;50.560;9.714;2023-03-09T10:37:36;2.40;;;1.83;;
10248;SDS011;5169;50.560;9.714;2023-03-09T10:42:14;4.03;;;1.50;;
10248;SDS011;5169;50.560;9.714;2023-03-09T10:44:55;1.80;;;1.53;;
10248;SDS011;5169;50.560;9.714;2023-03-09T10:50:20;3.60;;;1.63;;
10248;SDS011;5169;50.560;9.714;2023-03-09T10:52:53;2.80;;;1.57;;
10248;SDS011;5169;50.560;9.714;2023-03-09T10:58:00;1.27;;;1.10;;
10248;SDS011;5169;50.560;9.714;2023-03-09T11:00:31;1.93;;;0.90;;
10248;SDS011;5169;50.560;9.714;2023-03-09T11:02:59;1.60;;;1.20;;
10248;SDS011;5169;50.560;9.714;2023-03-09T11:05:27;1.80;;;0.90;;
10248;SDS011;5169;50.560;9.714;2023-03-09T11:07:59;1.67;;;0.90;;
10248;SDS011;5169;50.560;9.714;2023-03-09T11:10:33;2.90;;;1.20;;
10248;SDS011;5169;50.560;9.714;2023-03-09T11:13:00;1.73;;;1.27;;
10248;SDS011;5169;50.560;9.714;2023-03-09T11:15:32;2.33;;;1.50;;
10248;SDS011;5169;50.560;9.714;2023-03-09T11:18:00;3.40;;;1.30;;
10248;SDS011;5169;50.560;9.714;2023-03-09T11:31:13;1.33;;;1.07;;
10248;SDS011;5169;50.560;9.714;2023-03-09T11:33:46;2.87;;;1.40;;
10248;SDS011;5169;50.560;9.714;2023-03-09T11:36:19;2.07;;;1.27;;
10248;SDS011;5169;50.560;9.714;2023-03-09T11:38:59;1.93;;;1.33;;
10248;SDS011;5169;50.560;9.714;2023-03-09T11:41:30;1.97;;;1.47;;
10248;SDS011;5169;50.560;9.714;2023-03-09T11:44:03;2.27;;;1.20;;
10248;SDS011;5169;50.560;9.714;2023-03-09T11:46:37;1.40;;;1.00;;
10248;SDS011;5169;50.560;9.714;2023-03-09T11:49:10;2.07;;;1.47;;
10248;SDS011;5169;50.560;9.714;2023-03-09T11:51:45;3.57;;;1.70;;
10248;SDS011;5169;50.560;9.714;2023-03-09T11:54:39;2.00;;;1.37;;
10248;SDS011;5169;50.560;9.714;2023-03-09T11:57:10;3.20;;;1.87;;
10248;SDS011;5169;50.560;9.714;2023-03-09T11:59:41;4.83;;;2.00;;
10248;SDS011;5169;50.560;9.714;2023-03-09T12:02:25;3.17;;;1.40;;
10248;SDS011;5169;50.560;9.714;2023-03-09T12:04:59;2.27;;;1.13;;
10248;SDS011;5169;50.560;9.714;2023-03-09T12:13:05;3.50;;;1.40;;
10248;SDS011;5169;50.560;9.714;2023-03-09T12:15:36;4.80;;;1.87;;
10248;SDS011;5169;50.560;9.714;2023-03-09T12:18:38;2.07;;;1.40;;
10248;SDS011;5169;50.560;9.714;2023-03-09T12:21:22;1.90;;;1.27;;
10248;SDS011;5169;50.560;9.714;2023-03-09T12:24:02;3.63;;;1.67;;
10248;SDS011;5169;50.560;9.714;2023-03-09T12:26:55;3.23;;;1.90;;
10248;SDS011;5169;50.560;9.714;2023-03-09T12:29:29;2.87;;;1.60;;
10248;SDS011;5169;50.560;9.714;2023-03-09T12:34:42;3.77;;;1.40;;
10248;SDS011;5169;50.560;9.714;2023-03-09T12:39:59;2.73;;;1.30;;
10248;SDS011;5169;50.560;9.714;2023-03-09T12:42:42;3.13;;;1.30;;
10248;SDS011;5169;50.560;9.714;2023-03-09T12:55:18;5.60;;;1.50;;
10248;SDS011;5169;50.560;9.714;2023-03-09T12:57:52;5.00;;;1.83;;
10248;SDS011;5169;50.560;9.714;2023-03-09T13:00:53;4.43;;;1.50;;
10248;SDS011;5169;50.560;9.714;2023-03-09T13:03:23;3.03;;;1.70;;
10248;SDS011;5169;50.560;9.714;2023-03-09T13:05:57;4.67;;;1.60;;
10248;SDS011;5169;50.560;9.714;2023-03-09T13:08:35;4.00;;;1.60;;
10248;SDS011;5169;50.560;9.714;2023-03-09T13:16:35;3.53;;;1.50;;
10248;SDS011;5169;50.560;9.714;2023-03-09T13:29:34;2.93;;;1.50;;
10248;SDS011;5169;50.560;9.714;2023-03-09T13:32:05;2.77;;;1.40;;
10248;SDS011;5169;50.560;9.714;2023-03-09T13:34:48;6.47;;;1.60;;
10248;SDS011;5169;50.560;9.714;2023-03-09T13:37:17;5.70;;;1.60;;
10248;SDS011;5169;50.560;9.714;2023-03-09T13:40:02;3.90;;;1.83;;
10248;SDS011;5169;50.560;9.714;2023-03-09T13:42:57;5.50;;;1.60;;
10248;SDS011;5169;50.560;9.714;2023-03-09T13:47:52;5.47;;;1.90;;
10248;SDS011;5169;50.560;9.714;2023-03-09T13:50:20;5.27;;;1.67;;
10248;SDS011;5169;50.560;9.714;2023-03-09T13:53:01;2.43;;;1.50;;
10248;SDS011;5169;50.560;9.714;2023-03-09T13:55:27;4.30;;;1.63;;
10248;SDS011;5169;50.560;9.714;2023-03-09T13:58:33;3.63;;;1.80;;
10248;SDS011;5169;50.560;9.714;2023-03-09T14:03:24;8.63;;;4.63;;
10248;SDS011;5169;50.560;9.714;2023-03-09T14:06:01;7.50;;;3.83;;
10248;SDS011;5169;50.560;9.714;2023-03-09T14:08:48;4.00;;;2.30;;
10248;SDS011;5169;50.560;9.714;2023-03-09T14:11:27;6.97;;;2.47;;
10248;SDS011;5169;50.560;9.714;2023-03-09T14:13:59;6.00;;;2.17;;
10248;SDS011;5169;50.560;9.714;2023-03-09T14:16:32;4.87;;;1.90;;
10248;SDS011;5169;50.560;9.714;2023-03-09T14:18:59;5.17;;;2.37;;
10248;SDS011;5169;50.560;9.714;2023-03-09T14:21:30;7.70;;;2.27;;
10248;SDS011;5169;50.560;9.714;2023-03-09T14:26:44;5.10;;;2.27;;
10248;SDS011;5169;50.560;9.714;2023-03-09T14:32:16;4.97;;;1.90;;
10248;SDS011;5169;50.560;9.714;2023-03-09T14:34:51;5.40;;;2.27;;
10248;SDS011;5169;50.560;9.714;2023-03-09T14:37:23;5.07;;;2.07;;
10248;SDS011;5169;50.560;9.714;2023-03-09T14:39:54;4.53;;;1.93;;
10248;SDS011;5169;50.560;9.714;2023-03-09T14:42:34;5.63;;;2.30;;
10248;SDS011;5169;50.560;9.714;2023-03-09T14:45:06;4.10;;;1.93;;
10248;SDS011;5169;50.560;9.714;2023-03-09T14:47:35;4.37;;;2.00;;
10248;SDS011;5169;50.560;9.714;2023-03-09T14:50:02;8.00;;;2.13;;
10248;SDS011;5169;50.560;9.714;2023-03-09T14:52:28;6.43;;;2.60;;
10248;SDS011;5169;50.560;9.714;2023-03-09T14:55:00;5.10;;;2.10;;
10248;SDS011;5169;50.560;9.714;2023-03-09T14:57:25;5.67;;;2.40;;
10248;SDS011;5169;50.560;9.714;2023-03-09T14:59:52;5.47;;;1.93;;
10248;SDS011;5169;50.560;9.714;2023-03-09T15:02:20;4.53;;;2.00;;
10248;SDS011;5169;50.560;9.714;2023-03-09T15:04:48;5.77;;;2.17;;
10248;SDS011;5169;50.560;9.714;2023-03-09T15:07:15;5.63;;;2.00;;
10248;SDS011;5169;50.560;9.714;2023-03-09T15:09:42;7.60;;;2.60;;
10248;SDS011;5169;50.560;9.714;2023-03-09T15:12:12;4.57;;;1.83;;
10248;SDS011;5169;50.560;9.714;2023-03-09T15:14:41;5.10;;;1.93;;
10248;SDS011;5169;50.560;9.714;2023-03-09T15:17:14;6.43;;;2.50;;
10248;SDS011;5169;50.560;9.714;2023-03-09T15:19:44;6.87;;;2.20;;
10248;SDS011;5169;50.560;9.714;2023-03-09T15:22:10;5.90;;;2.20;;
10248;SDS011;5169;50.560;9.714;2023-03-09T15:24:38;8.80;;;2.60;;
10248;SDS011;5169;50.560;9.714;2023-03-09T15:27:04;8.43;;;2.40;;
10248;SDS011;5169;50.560;9.714;2023-03-09T15:29:35;7.13;;;2.40;;
10248;SDS011;5169;50.560;9.714;2023-03-09T15:32:04;8.23;;;2.73;;
10248;SDS011;5169;50.560;9.714;2023-03-09T15:34:33;9.00;;;2.63;;
10248;SDS011;5169;50.560;9.714;2023-03-09T15:37:00;9.33;;;2.40;;
10248;SDS011;5169;50.560;9.714;2023-03-09T15:39:26;8.93;;;2.40;;
10248;SDS011;5169;50.560;9.714;2023-03-09T15:41:54;6.30;;;2.10;;
10248;SDS011;5169;50.560;9.714;2023-03-09T15:44:22;6.03;;;2.63;;
10248;SDS011;5169;50.560;9.714;2023-03-09T15:46:48;7.07;;;2.10;;
10248;SDS011;5169;50.560;9.714;2023-03-09T15:49:13;6.20;;;2.07;;
10248;SDS011;5169;50.560;9.714;2023-03-09T15:51:39;9.23;;;2.03;;
10248;SDS011;5169;50.560;9.714;2023-03-09T15:54:05;8.10;;;2.00;;
10248;SDS011;5169;50.560;9.714;2023-03-09T15:56:31;3.97;;;1.30;;
10248;SDS011;5169;50.560;9.714;2023-03-09T15:58:58;8.83;;;1.80;;
10248;SDS011;5169;50.560;9.714;2023-03-09T16:01:29;4.27;;;1.70;;
10248;SDS011;5169;50.560;9.714;2023-03-09T16:03:55;3.60;;;1.73;;
10248;SDS011;5169;50.560;9.714;2023-03-09T16:06:23;7.03;;;2.23;;
10248;SDS011;5169;50.560;9.714;2023-03-09T16:08:49;5.50;;;2.13;;
10248;SDS011;5169;50.560;9.714;2023-03-09T16:11:15;4.77;;;2.10;;
10248;SDS011;5169;50.560;9.714;2023-03-09T16:13:41;6.23;;;2.37;;
10248;SDS011;5169;50.560;9.714;2023-03-09T16:16:08;3.93;;;1.77;;
10248;SDS011;5169;50.560;9.714;2023-03-09T16:18:35;7.27;;;2.10;;
10248;SDS011;5169;50.560;9.714;2023-03-09T16:21:01;7.00;;;2.50;;
10248;SDS011;5169;50.560;9.714;2023-03-09T16:23:27;4.37;;;1.80;;
10248;SDS011;5169;50.560;9.714;2023-03-09T16:25:54;5.43;;;2.00;;
10248;SDS011;5169;50.560;9.714;2023-03-09T16:28:22;8.00;;;2.30;;
10248;SDS011;5169;50.560;9.714;2023-03-09T16:30:48;5.93;;;1.93;;
10248;SDS011;5169;50.560;9.714;2023-03-09T16:33:14;5.67;;;2.07;;
10248;SDS011;5169;50.560;9.714;2023-03-09T16:35:40;9.03;;;2.50;;
10248;SDS011;5169;50.560;9.714;2023-03-09T16:38:10;5.50;;;2.27;;
10248;SDS011;5169;50.560;9.714;2023-03-09T16:40:40;6.17;;;2.37;;
10248;SDS011;5169;50.560;9.714;2023-03-09T16:43:06;8.40;;;2.70;;
10248;SDS011;5169;50.560;9.714;2023-03-09T16:45:32;5.27;;;1.93;;
10248;SDS011;5169;50.560;9.714;2023-03-09T16:47:58;4.37;;;2.20;;
10248;SDS011;5169;50.560;9.714;2023-03-09T16:50:24;9.40;;;2.43;;
10248;SDS011;5169;50.560;9.714;2023-03-09T16:52:55;8.57;;;2.30;;